Time;durP1;ratioP1;P1;durP2;ratioP2;P2;SDS_P1;SDS_P2;PMS_P1;PMS_P2;Temp;Humidity;BMP_temperature;BMP_pressure;BME280_temperature;BME280_humidity;BME280_pressure;Samples;Min_cycle;Max_cycle;Signal;HPM_P1;HPM_P2
2022/12/24 00:03:03;;;;;;;39.75;23.62;;;;;;;6.29;79.75;100386.47;1761714;80;21399;-51
2022/12/24 00:06:16;;;;;;;34.03;21.12;;;;;;;6.31;79.87;100387.67;1770977;80;21335;-51
2022/12/24 00:09:22;;;;;;;35.98;22.52;;;;;;;6.30;79.89;100385.45;1771431;80;21173;-52
2022/12/24 00:12:30;;;;;;;38.40;22.37;;;;;;;6.30;79.91;100388.66;1771208;80;21201;-51
2022/12/24 00:15:35;;;;;;;38.60;23.10;;;;;;;6.30;79.89;100388.16;1771471;80;21244;-51
2022/12/24 00:18:42;;;;;;;42.62;25.72;;;;;;;6.24;79.76;100379.25;1771834;80;21244;-51
2022/12/24 00:21:48;;;;;;;41.00;25.02;;;;;;;6.19;79.77;100374.76;1771362;80;21225;-51
2022/12/24 00:24:54;;;;;;;40.80;23.22;;;;;;;6.19;79.82;100380.69;1771653;80;21185;-51
2022/12/24 00:28:01;;;;;;;38.35;24.35;;;;;;;6.16;79.86;100374.19;1771309;80;21181;-51
2022/12/24 00:31:05;;;;;;;40.17;24.32;;;;;;;6.13;79.93;100378.56;1771255;80;21189;-52
2022/12/24 00:34:12;;;;;;;43.33;23.47;;;;;;;6.12;79.90;100373.63;1771403;80;21197;-52
2022/12/24 00:37:18;;;;;;;42.03;23.67;;;;;;;6.09;79.90;100370.71;1771549;80;21259;-52
2022/12/24 00:40:25;;;;;;;41.28;24.07;;;;;;;6.07;79.99;100365.92;1771150;79;21185;-50
2022/12/24 00:43:30;;;;;;;40.67;24.27;;;;;;;6.09;80.04;100369.84;1772250;80;21171;-51
2022/12/24 00:46:36;;;;;;;42.23;24.77;;;;;;;6.08;79.99;100373.58;1770286;80;21189;-52
2022/12/24 00:49:41;;;;;;;44.48;24.80;;;;;;;6.03;79.93;100365.01;1770869;80;21170;-52
2022/12/24 00:52:48;;;;;;;42.83;25.00;;;;;;;6.01;80.03;100370.59;1770997;79;21224;-51
2022/12/24 00:55:53;;;;;;;41.02;25.45;;;;;;;6.02;80.14;100368.74;1771021;80;21182;-52
2022/12/24 00:58:58;;;;;;;41.42;24.02;;;;;;;6.04;80.19;100370.30;1772805;80;21208;-51
2022/12/24 01:02:04;;;;;;;44.58;25.40;;;;;;;6.09;80.29;100375.28;1764407;80;21759;-50
2022/12/24 01:05:10;;;;;;;46.70;26.17;;;;;;;6.14;80.47;100367.55;1771248;80;21189;-51
2022/12/24 01:08:16;;;;;;;46.83;25.45;;;;;;;6.21;80.54;100366.45;1771941;80;21174;-51
2022/12/24 01:11:23;;;;;;;39.98;24.55;;;;;;;6.28;80.64;100365.70;1771645;80;21228;-51
2022/12/24 01:14:29;;;;;;;52.62;27.25;;;;;;;6.33;80.56;100366.12;1771020;81;21158;-51
2022/12/24 01:17:38;;;;;;;46.58;26.02;;;;;;;6.34;80.48;100369.70;1771466;80;21215;-52
2022/12/24 01:20:43;;;;;;;44.85;26.77;;;;;;;6.31;80.33;100369.48;1771007;80;21201;-52
2022/12/24 01:23:49;;;;;;;43.75;26.12;;;;;;;6.29;80.30;100365.21;1763764;81;21158;-51
2022/12/24 01:26:54;;;;;;;47.35;27.77;;;;;;;6.29;80.32;100363.36;1770982;79;21280;-51
2022/12/24 01:30:00;;;;;;;47.98;27.20;;;;;;;6.33;80.44;100363.39;1771050;81;21201;-51
2022/12/24 01:33:06;;;;;;;44.05;25.82;;;;;;;6.36;80.45;100364.98;1771655;80;21327;-51
2022/12/24 01:36:13;;;;;;;44.98;25.02;;;;;;;6.40;80.56;100371.32;1771009;81;21181;-51
2022/12/24 01:39:18;;;;;;;45.95;25.37;;;;;;;6.46;80.66;100370.72;1763659;81;21358;-51
2022/12/24 01:46:00;;;;;;;44.38;25.57;;;;;;;6.56;80.71;100363.88;1771083;79;21225;-51
2022/12/24 01:49:09;;;;;;;44.35;24.45;;;;;;;6.56;80.61;100357.94;1771886;79;21249;-52
2022/12/24 01:52:22;;;;;;;48.15;25.60;;;;;;;6.58;80.60;100358.63;1771064;81;21181;-52
2022/12/24 01:55:28;;;;;;;46.20;26.27;;;;;;;6.59;80.43;100354.92;1771303;81;21177;-50
2022/12/24 01:58:37;;;;;;;47.65;26.33;;;;;;;6.53;80.23;100349.22;1763797;81;21213;-52
2022/12/24 02:01:44;;;;;;;44.60;26.45;;;;;;;6.49;80.25;100352.74;1770809;80;21301;-50
2022/12/24 02:05:04;;;;;;;48.00;27.50;;;;;;;6.47;80.21;100353.39;1771360;81;21194;-50
2022/12/24 02:08:09;;;;;;;41.68;26.00;;;;;;;6.44;80.17;100352.33;1771043;81;21228;-50
2022/12/24 02:11:26;;;;;;;43.78;25.55;;;;;;;6.45;80.32;100358.14;1763815;81;21449;-51
2022/12/24 02:14:31;;;;;;;44.60;26.82;;;;;;;6.48;80.41;100357.84;1771111;80;21174;-51
2022/12/24 02:17:47;;;;;;;47.90;26.37;;;;;;;6.48;80.33;100359.69;1771138;80;21209;-52
2022/12/24 02:21:22;;;;;;;45.60;26.95;;;;;;;6.47;80.29;100354.75;1763843;81;21311;-53
2022/12/24 02:24:33;;;;;;;49.18;26.57;;;;;;;6.48;80.34;100353.76;1771193;80;21353;-51
2022/12/24 02:27:54;;;;;;;49.53;26.90;;;;;;;6.52;80.43;100357.01;1771135;80;21197;-51
2022/12/24 02:31:10;;;;;;;49.35;27.52;;;;;;;6.52;80.38;100353.80;1771226;80;21170;-51
2022/12/24 02:34:27;;;;;;;47.33;25.97;;;;;;;6.55;80.43;100358.93;1771687;80;21347;-52
2022/12/24 02:37:38;;;;;;;53.33;28.42;;;;;;;6.57;80.42;100359.64;1772177;80;21725;-52
2022/12/24 02:40:48;;;;;;;52.98;26.85;;;;;;;6.61;80.49;100358.31;1771119;81;21177;-51
2022/12/24 02:43:54;;;;;;;42.98;27.42;;;;;;;6.62;80.40;100359.19;1771150;81;21180;-51
2022/12/24 02:46:59;;;;;;;52.10;29.82;;;;;;;6.59;80.22;100358.13;1771034;81;21237;-51
2022/12/24 02:50:08;;;;;;;50.23;28.23;;;;;;;6.54;80.17;100346.84;1771214;81;21283;-52
2022/12/24 02:53:15;;;;;;;52.45;27.95;;;;;;;6.52;80.13;100353.80;1763671;81;21157;-51
2022/12/24 02:56:58;;;;;;;47.30;27.58;;;;;;;6.50;80.15;100346.28;1771138;80;21232;-49
2022/12/24 03:00:15;;;;;;;47.08;25.55;;;;;;;6.48;80.10;100353.76;1771121;81;21256;-52
2022/12/24 03:03:44;;;;;;;51.70;27.25;;;;;;;6.46;80.25;100357.12;1770096;80;21201;-51
2022/12/24 03:07:04;;;;;;;41.10;25.52;;;;;;;6.47;80.30;100358.83;1762910;81;21201;-51
2022/12/24 03:10:50;;;;;;;43.68;25.17;;;;;;;6.46;80.29;100362.56;1771531;79;21241;-51
2022/12/24 03:13:55;;;;;;;48.45;26.07;;;;;;;6.45;80.26;100361.35;1771119;80;21224;-52
2022/12/24 03:17:03;;;;;;;44.20;26.57;;;;;;;6.45;80.29;100370.38;1771749;79;21209;-51
2022/12/24 03:20:09;;;;;;;47.23;27.00;;;;;;;6.48;80.50;100372.80;1771115;80;21237;-51
2022/12/24 03:23:14;;;;;;;47.75;26.87;;;;;;;6.52;80.59;100370.61;1771065;80;21217;-52
2022/12/24 03:26:21;;;;;;;47.75;27.40;;;;;;;6.57;80.67;100366.44;1771458;80;21236;-51
2022/12/24 03:29:26;;;;;;;44.08;25.80;;;;;;;6.61;80.63;100369.20;1771347;80;21182;-52
2022/12/24 03:32:38;;;;;;;43.92;25.95;;;;;;;6.64;80.64;100362.13;1770997;80;21718;-50
2022/12/24 03:35:44;;;;;;;52.97;27.27;;;;;;;6.67;80.56;100360.45;1771292;81;21190;-51
2022/12/24 03:38:50;;;;;;;44.95;25.77;;;;;;;6.61;80.23;100353.41;1771821;80;21261;-52
2022/12/24 03:41:56;;;;;;;44.33;26.23;;;;;;;6.54;80.21;100349.06;1771517;80;21189;-51
2022/12/24 03:45:01;;;;;;;50.98;28.45;;;;;;;6.50;80.19;100355.80;1771024;79;21225;-52
2022/12/24 03:48:09;;;;;;;49.80;28.15;;;;;;;6.51;80.30;100357.53;1771407;81;21195;-51
2022/12/24 03:51:23;;;;;;;55.38;28.62;;;;;;;6.44;80.16;100353.69;1771527;80;21216;-51
2022/12/24 03:54:29;;;;;;;50.30;28.87;;;;;;;6.40;80.10;100359.58;1771034;80;21228;-51
2022/12/24 03:57:35;;;;;;;54.10;29.55;;;;;;;6.36;80.18;100351.39;1771550;80;21197;-52
2022/12/24 04:00:41;;;;;;;58.68;29.67;;;;;;;6.32;80.16;100361.70;1771120;81;21244;-50
2022/12/24 04:03:47;;;;;;;58.35;30.57;;;;;;;6.29;80.18;100362.49;1769063;80;21259;-52
2022/12/24 04:06:53;;;;;;;56.85;29.45;;;;;;;6.26;80.29;100357.36;1771087;81;21227;-53
2022/12/24 04:10:00;;;;;;;52.20;30.17;;;;;;;6.25;80.42;100364.64;1771167;81;21181;-51
2022/12/24 04:13:05;;;;;;;53.87;29.57;;;;;;;6.25;80.53;100358.38;1770993;81;21190;-52
2022/12/24 04:16:15;;;;;;;58.68;29.48;;;;;;;6.29;80.61;100356.56;1771092;79;21275;-50
2022/12/24 04:19:22;;;;;;;59.73;29.77;;;;;;;6.26;80.49;100354.15;1764054;81;21217;-51
2022/12/24 04:22:28;;;;;;;57.45;30.00;;;;;;;6.21;80.44;100350.14;1771136;80;21375;-51
2022/12/24 04:25:35;;;;;;;65.70;32.05;;;;;;;6.24;80.56;100351.20;1771524;80;21225;-51
2022/12/24 04:28:41;;;;;;;63.73;30.97;;;;;;;6.22;80.48;100351.84;1771028;81;21189;-51
2022/12/24 04:31:46;;;;;;;71.15;30.80;;;;;;;6.18;80.48;100355.88;1771229;79;21438;-50
2022/12/24 04:34:52;;;;;;;70.12;31.30;;;;;;;6.15;80.46;100346.67;1763543;80;21228;-51
2022/12/24 04:37:58;;;;;;;74.97;32.08;;;;;;;6.10;80.43;100344.41;1763584;81;21178;-51
2022/12/24 04:41:17;;;;;;;71.35;30.37;;;;;;;6.06;80.56;100346.55;1770648;80;21213;-50
2022/12/24 04:44:22;;;;;;;71.05;30.72;;;;;;;6.10;80.70;100352.03;1763262;81;21240;-51
2022/12/24 04:47:28;;;;;;;75.70;32.73;;;;;;;6.10;80.71;100352.55;1770761;81;21683;-50
2022/12/24 04:50:34;;;;;;;66.33;31.55;;;;;;;6.13;80.75;100352.75;1763740;81;21232;-51
2022/12/24 04:53:39;;;;;;;72.78;35.15;;;;;;;6.12;80.73;100349.16;1770698;81;21197;-51
2022/12/24 04:56:45;;;;;;;73.37;31.85;;;;;;;6.12;80.73;100352.41;1770880;81;21201;-51
2022/12/24 04:59:51;;;;;;;72.78;31.42;;;;;;;6.15;80.78;100352.97;1771008;81;21177;-52
2022/12/24 05:02:56;;;;;;;72.72;30.72;;;;;;;6.13;80.77;100350.90;1771362;81;21224;-51
2022/12/24 05:06:11;;;;;;;66.02;28.87;;;;;;;6.13;80.80;100349.54;1737185;82;21823;-51
2022/12/24 05:09:18;;;;;;;63.92;28.73;;;;;;;6.14;80.79;100353.95;1737488;82;21188;-51
2022/12/24 05:12:25;;;;;;;80.35;29.87;;;;;;;6.12;80.73;100353.24;1737211;81;21188;-51
2022/12/24 05:15:31;;;;;;;64.95;27.50;;;;;;;6.10;80.69;100359.34;1737285;82;21244;-51
2022/12/24 05:18:36;;;;;;;65.67;28.20;;;;;;;6.08;80.71;100362.22;1737239;82;21184;-52
2022/12/24 05:21:42;;;;;;;75.67;30.68;;;;;;;6.04;80.66;100362.67;1737452;82;21212;-51
2022/12/24 05:28:12;;;;;;;;;;;;;;;6.07;80.89;100370.00;1739925;82;21176;-51
2022/12/24 05:31:18;;;;;;;77.67;31.02;;;;;;;6.12;80.97;100364.11;1738627;82;20176;-52
2022/12/24 05:34:24;;;;;;;68.25;29.90;;;;;;;6.04;80.77;100349.91;1719750;82;21269;-53
2022/12/24 05:37:31;;;;;;;67.72;28.98;;;;;;;5.99;80.77;100352.21;1737476;82;21232;-51
2022/12/24 05:40:38;;;;;;;72.27;29.67;;;;;;;5.95;80.79;100347.23;1737353;81;21256;-51
2022/12/24 05:43:46;;;;;;;70.67;29.85;;;;;;;5.91;80.88;100353.97;1737249;82;21168;-51
2022/12/24 05:46:54;;;;;;;73.78;28.55;;;;;;;5.92;80.95;100355.67;1737234;82;21216;-51
2022/12/24 05:50:01;;;;;;;79.42;28.73;;;;;;;5.98;81.12;100356.44;1737347;82;21227;-51
2022/12/24 05:53:10;;;;;;;63.10;28.52;;;;;;;6.01;81.11;100357.01;1737508;82;21498;-52
2022/12/24 05:56:22;;;;;;;70.70;29.35;;;;;;;6.01;81.16;100356.14;1737467;82;21188;-52
2022/12/24 05:59:30;;;;;;;68.50;27.60;;;;;;;6.07;81.23;100361.01;1720270;82;21212;-51
2022/12/24 06:02:36;;;;;;;74.40;32.63;;;;;;;6.11;81.29;100362.41;1730413;80;21184;-51
2022/12/24 06:05:42;;;;;;;72.03;31.97;;;;;;;6.18;81.36;100366.75;1752976;80;21272;-51
2022/12/24 06:08:49;;;;;;;80.32;32.33;;;;;;;6.20;81.31;100365.59;1770720;79;21193;-52
2022/12/24 06:11:55;;;;;;;82.17;31.07;;;;;;;6.20;81.26;100366.95;1771167;81;21205;-53
2022/12/24 06:15:00;;;;;;;83.30;35.85;;;;;;;6.25;81.38;100370.08;1770790;79;21280;-52
2022/12/24 06:18:06;;;;;;;117.00;39.90;;;;;;;6.32;81.42;100368.49;1770472;80;21165;-52
2022/12/24 06:21:13;;;;;;;91.57;33.35;;;;;;;6.28;81.20;100369.78;1770289;80;21765;-52
2022/12/24 06:24:19;;;;;;;85.28;31.90;;;;;;;6.27;81.11;100369.93;1770284;81;21169;-52
2022/12/24 06:27:26;;;;;;;89.30;36.77;;;;;;;6.27;81.10;100376.23;1770375;81;21706;-52
2022/12/24 06:30:31;;;;;;;89.17;33.53;;;;;;;6.28;81.08;100373.86;1770477;81;21252;-54
2022/12/24 06:33:38;;;;;;;82.97;35.08;;;;;;;6.26;80.97;100377.25;1770798;81;21169;-51
2022/12/24 06:36:44;;;;;;;100.25;37.48;;;;;;;6.25;80.96;100374.16;1763571;81;21347;-51
2022/12/24 06:39:49;;;;;;;85.15;33.05;;;;;;;6.24;80.96;100381.10;1771187;80;21248;-52
2022/12/24 06:42:54;;;;;;;74.35;30.43;;;;;;;6.19;80.89;100373.40;1770874;79;21197;-53
2022/12/24 06:46:00;;;;;;;74.25;31.00;;;;;;;6.18;80.93;100380.34;1759030;80;21260;-51
2022/12/24 06:49:07;;;;;;;73.22;29.40;;;;;;;6.19;81.06;100376.11;1740032;82;21359;-52
2022/12/24 06:52:11;;;;;;;63.80;28.17;;;;;;;6.24;81.09;100381.10;1739971;82;21279;-51
2022/12/24 06:55:17;;;;;;;80.62;27.85;;;;;;;6.22;81.02;100377.67;1740117;82;21766;-51
2022/12/24 06:58:23;;;;;;;76.62;30.17;;;;;;;6.24;81.01;100383.82;1733350;82;21276;-52
2022/12/24 07:01:29;;;;;;;77.55;32.08;;;;;;;6.28;81.07;100385.25;1739906;81;21741;-51
2022/12/24 07:04:35;;;;;;;72.17;31.37;;;;;;;6.37;81.25;100386.58;1755835;81;21825;-51
2022/12/24 07:07:39;;;;;;;65.57;31.62;;;;;;;6.48;81.38;100392.31;1769440;79;21204;-52
2022/12/24 07:10:44;;;;;;;65.97;31.35;;;;;;;6.58;81.48;100399.94;1770759;79;21808;-52
2022/12/24 07:13:54;;;;;;;70.10;31.77;;;;;;;6.67;81.60;100405.83;1771006;80;21194;-52
2022/12/24 07:16:59;;;;;;;68.30;31.42;;;;;;;6.76;81.69;100407.64;1748279;81;21195;-52
2022/12/24 07:20:06;;;;;;;74.12;31.75;;;;;;;6.83;81.63;100406.03;1754147;81;21214;-52
2022/12/24 07:23:11;;;;;;;97.75;40.17;;;;;;;6.87;81.57;100411.52;1747684;81;21671;-51
2022/12/24 07:26:17;;;;;;;131.10;50.58;;;;;;;6.90;81.45;100409.35;1757006;81;21193;-51
2022/12/24 07:29:22;;;;;;;140.60;54.90;;;;;;;6.92;81.29;100407.34;1770416;80;21205;-56
2022/12/24 07:32:29;;;;;;;78.37;36.08;;;;;;;6.90;81.07;100406.63;1770565;80;21217;-52
2022/12/24 07:35:36;;;;;;;70.25;33.00;;;;;;;6.87;80.87;100410.16;1756544;81;21193;-51
2022/12/24 07:38:42;;;;;;;58.73;28.42;;;;;;;6.83;80.81;100405.55;1754836;81;21214;-52
2022/12/24 07:41:49;;;;;;;61.00;28.70;;;;;;;6.80;80.71;100407.17;1762119;80;21201;-52
2022/12/24 07:44:55;;;;;;;60.95;29.20;;;;;;;6.78;80.71;100405.63;1739639;82;21750;-52
2022/12/24 07:48:02;;;;;;;63.38;29.02;;;;;;;6.78;80.82;100405.14;1739539;82;21169;-51
2022/12/24 07:51:07;;;;;;;58.73;28.87;;;;;;;6.82;80.85;100408.42;1739792;81;21213;-52
2022/12/24 07:54:13;;;;;;;56.63;28.87;;;;;;;6.83;80.85;100401.47;1746024;81;21205;-52
2022/12/24 07:57:18;;;;;;;59.15;29.27;;;;;;;6.85;80.85;100400.78;1738048;82;21351;-51
2022/12/24 08:00:25;;;;;;;55.00;28.85;;;;;;;6.84;80.80;100395.50;1737734;82;21383;-52
2022/12/24 08:03:32;;;;;;;57.98;28.57;;;;;;;6.84;80.79;100396.36;1738058;82;21241;-51
2022/12/24 08:06:39;;;;;;;67.80;32.70;;;;;;;6.83;80.74;100393.30;1731333;82;21355;-52
2022/12/24 08:09:48;;;;;;;57.62;29.55;;;;;;;6.85;80.73;100390.42;1738881;82;21531;-52
2022/12/24 08:12:55;;;;;;;51.55;26.35;;;;;;;6.84;80.74;100388.69;1738296;82;21367;-53
2022/12/24 08:16:01;;;;;;;53.00;27.93;;;;;;;6.87;80.82;100391.11;1738171;82;21730;-52
2022/12/24 08:19:09;;;;;;;58.02;28.15;;;;;;;6.87;80.84;100391.98;1743515;80;21205;-55
2022/12/24 08:22:15;;;;;;;60.05;29.37;;;;;;;6.91;80.95;100390.64;1738031;82;21261;-53
2022/12/24 08:25:20;;;;;;;55.63;27.67;;;;;;;6.94;80.96;100394.45;1738373;82;21221;-53
2022/12/24 08:28:26;;;;;;;60.98;30.62;;;;;;;7.02;81.07;100382.80;1752706;81;21240;-54
2022/12/24 08:31:35;;;;;;;56.88;28.20;;;;;;;7.10;81.15;100384.25;1739913;82;21303;-53
2022/12/24 08:34:41;;;;;;;60.73;29.45;;;;;;;7.17;81.19;100386.19;1739721;82;21213;-51
2022/12/24 08:37:49;;;;;;;57.93;29.37;;;;;;;7.16;81.01;100379.55;1739368;82;21733;-52
2022/12/24 08:40:55;;;;;;;60.28;29.72;;;;;;;7.15;80.89;100373.23;1739101;82;21192;-52
2022/12/24 08:44:02;;;;;;;57.25;27.77;;;;;;;7.09;80.71;100371.13;1739473;82;21181;-52
2022/12/24 08:47:12;;;;;;;53.63;28.60;;;;;;;6.99;80.64;100373.58;1757077;79;21221;-53
2022/12/24 08:50:18;;;;;;;59.42;29.52;;;;;;;6.93;80.66;100363.31;1769805;79;21598;-51
2022/12/24 08:53:25;;;;;;;61.28;29.90;;;;;;;6.90;80.70;100359.51;1770621;80;21685;-52
2022/12/24 08:56:34;;;;;;;60.45;30.75;;;;;;;6.87;80.77;100362.05;1770246;80;21249;-53
2022/12/24 08:59:39;;;;;;;55.63;28.25;;;;;;;6.90;80.88;100363.09;1770223;79;21249;-52
2022/12/24 09:02:45;;;;;;;59.35;29.57;;;;;;;6.93;80.95;100357.88;1770631;80;21217;-51
2022/12/24 09:05:55;;;;;;;60.17;29.27;;;;;;;6.96;80.99;100350.76;1769992;79;21189;-51
2022/12/24 09:09:02;;;;;;;62.88;29.95;;;;;;;6.96;81.07;100347.51;1769840;79;21213;-53
2022/12/24 09:12:12;;;;;;;58.50;28.87;;;;;;;6.98;81.13;100337.34;1759506;79;21224;-51
2022/12/24 09:15:17;;;;;;;66.75;30.57;;;;;;;7.00;81.15;100348.06;1698282;82;21184;-52
2022/12/24 09:18:25;;;;;;;60.28;30.52;;;;;;;6.92;81.00;100350.70;1734573;82;21729;-52
2022/12/24 09:21:32;;;;;;;62.25;30.68;;;;;;;6.92;81.17;100366.53;1734561;82;21192;-53
2022/12/24 09:24:37;;;;;;;64.55;32.33;;;;;;;6.97;81.35;100351.96;1734131;81;21200;-51
2022/12/24 09:27:45;;;;;;;62.78;31.85;;;;;;;7.00;81.29;100343.98;1734721;82;21210;-52
2022/12/24 09:30:52;;;;;;;64.42;32.45;;;;;;;6.98;81.26;100345.50;1740804;81;21781;-52
2022/12/24 09:33:57;;;;;;;64.22;32.03;;;;;;;6.95;81.25;100342.22;1684685;83;21188;-52
2022/12/24 09:37:04;;;;;;;62.27;31.57;;;;;;;6.96;81.21;100341.23;1691648;84;21758;-53
2022/12/24 09:40:13;;;;;;;64.27;32.42;;;;;;;6.99;81.31;100338.20;1704730;84;21250;-54
2022/12/24 09:43:30;;;;;;;58.52;30.20;;;;;;;7.11;81.55;100335.09;1678184;84;21214;-54
2022/12/24 09:46:42;;;;;;;58.13;29.35;;;;;;;7.22;81.51;100326.70;1705317;84;21204;-52
2022/12/24 09:49:51;;;;;;;50.48;26.12;;;;;;;7.36;81.58;100337.03;1692284;84;21215;-53
2022/12/24 09:53:00;;;;;;;55.23;28.83;;;;;;;7.45;81.56;100329.27;1705951;84;21267;-53
2022/12/24 09:56:06;;;;;;;57.48;29.67;;;;;;;7.52;81.50;100328.14;1692812;84;21245;-53
2022/12/24 09:59:26;;;;;;;58.58;29.30;;;;;;;7.47;81.16;100321.81;1705791;84;21207;-53
2022/12/24 10:02:33;;;;;;;51.70;27.15;;;;;;;7.44;81.19;100315.32;1765888;80;21747;-53
2022/12/24 10:05:56;;;;;;;48.45;25.72;;;;;;;7.48;81.24;100314.50;1770248;79;21205;-53
2022/12/24 10:09:18;;;;;;;49.37;26.43;;;;;;;7.48;81.24;100313.97;1748976;80;21213;-52
2022/12/24 10:12:42;;;;;;;52.67;28.15;;;;;;;7.57;81.54;100314.91;1721296;81;21227;-53
2022/12/24 10:16:12;;;;;;;55.40;30.17;;;;;;;7.61;81.49;100309.51;1730645;81;21279;-52
2022/12/24 10:19:32;;;;;;;53.83;27.87;;;;;;;7.66;81.50;100301.69;1725523;82;21243;-53
2022/12/24 10:23:08;;;;;;;52.98;27.27;;;;;;;7.59;81.16;100299.27;1725093;82;21824;-52
2022/12/24 10:26:34;;;;;;;56.73;29.02;;;;;;;7.53;81.15;100302.11;1735824;81;21268;-53
2022/12/24 10:29:48;;;;;;;48.55;25.40;;;;;;;7.60;81.40;100315.45;1730280;81;21796;-53
2022/12/24 10:32:59;;;;;;;55.28;28.15;;;;;;;7.70;81.62;100319.44;1735513;81;21216;-51
2022/12/24 10:36:05;;;;;;;56.30;28.87;;;;;;;7.74;81.55;100317.27;1706046;82;21235;-53
2022/12/24 10:39:13;;;;;;;61.37;28.73;;;;;;;7.80;81.48;100319.34;1705871;84;21215;-53
2022/12/24 10:42:18;;;;;;;57.10;29.02;;;;;;;7.87;81.51;100313.58;1724274;82;21732;-53
2022/12/24 10:45:29;;;;;;;55.95;28.70;;;;;;;7.95;81.48;100319.95;1720729;82;21797;-53
2022/12/24 10:48:44;;;;;;;53.33;27.67;;;;;;;8.00;81.36;100317.60;1721296;82;21207;-52
2022/12/24 10:52:03;;;;;;;45.90;24.90;;;;;;;8.00;81.28;100311.28;1706362;82;21271;-52
2022/12/24 10:55:20;;;;;;;47.62;26.15;;;;;;;7.97;81.14;100319.79;1707579;83;21247;-53
2022/12/24 10:58:27;;;;;;;47.30;25.80;;;;;;;7.98;81.36;100318.77;1708083;83;21349;-53
2022/12/24 11:01:54;;;;;;;51.00;26.35;;;;;;;8.06;81.57;100322.90;1707690;83;21259;-54
2022/12/24 11:05:01;;;;;;;39.13;22.77;;;;;;;8.12;81.72;100319.56;1730421;81;21780;-52
2022/12/24 11:08:24;;;;;;;37.48;22.62;;;;;;;8.18;81.77;100325.72;1734285;82;21211;-53
2022/12/24 11:11:29;;;;;;;35.95;22.75;;;;;;;8.18;81.75;100321.63;1720996;81;21240;-53
2022/12/24 11:14:41;;;;;;;37.35;23.52;;;;;;;8.21;81.77;100321.30;1738667;82;21200;-52
2022/12/24 11:17:46;;;;;;;40.65;24.35;;;;;;;8.25;81.75;100318.61;1768186;80;21221;-54
2022/12/24 11:20:59;;;;;;;39.48;26.42;;;;;;;8.25;81.68;100325.44;1768031;79;21221;-53
2022/12/24 11:24:21;;;;;;;37.38;22.87;;;;;;;8.26;81.76;100315.72;1756272;80;21184;-52
2022/12/24 11:27:39;;;;;;;36.00;23.55;;;;;;;8.30;81.74;100323.08;1737126;81;21217;-53
2022/12/24 11:30:44;;;;;;;35.90;23.18;;;;;;;8.32;81.74;100325.14;1738128;82;21582;-53
2022/12/24 11:33:59;;;;;;;36.77;22.35;;;;;;;8.34;81.79;100324.48;1750195;81;21185;-53
2022/12/24 11:37:30;;;;;;;38.00;23.15;;;;;;;8.33;81.73;100329.56;1752562;80;21284;-52
2022/12/24 11:40:44;;;;;;;40.33;24.80;;;;;;;8.28;81.56;100321.87;1769473;79;21196;-53
2022/12/24 11:43:53;;;;;;;45.15;26.65;;;;;;;8.24;81.52;100328.69;1768676;81;21829;-52
2022/12/24 11:46:59;;;;;;;43.42;24.60;;;;;;;8.18;81.60;100332.53;1770082;79;21213;-54
2022/12/24 11:50:07;;;;;;;39.63;26.65;;;;;;;8.10;81.55;100336.08;1751773;81;21189;-53
2022/12/24 11:53:26;;;;;;;37.65;25.08;;;;;;;8.04;81.59;100341.31;1740046;81;21197;-53
2022/12/24 11:56:45;;;;;;;37.00;24.57;;;;;;;8.00;81.68;100344.00;1746085;79;21228;-53
2022/12/24 11:59:54;;;;;;;35.90;24.23;;;;;;;8.00;81.79;100331.23;1714662;82;21201;-52
2022/12/24 12:03:02;;;;;;;39.67;25.75;;;;;;;8.01;81.75;100332.10;1751117;80;21225;-53
2022/12/24 12:06:10;;;;;;;37.53;24.82;;;;;;;8.00;81.60;100337.18;1744086;81;21233;-53
2022/12/24 12:09:21;;;;;;;40.98;24.95;;;;;;;7.96;81.57;100333.08;1757442;81;21193;-53
2022/12/24 12:12:33;;;;;;;40.40;24.45;;;;;;;7.97;81.62;100342.95;1750680;80;21213;-53
2022/12/24 12:15:59;;;;;;;37.48;24.12;;;;;;;7.99;81.75;100340.41;1747384;79;21849;-52
2022/12/24 12:19:11;;;;;;;42.15;25.90;;;;;;;8.03;81.78;100345.03;1769029;80;21646;-52
2022/12/24 12:22:25;;;;;;;46.65;28.35;;;;;;;8.02;81.73;100350.16;1761023;80;21260;-52
2022/12/24 12:25:41;;;;;;;40.63;25.45;;;;;;;8.01;81.77;100350.65;1742509;79;21173;-52
2022/12/24 12:29:06;;;;;;;41.28;26.17;;;;;;;8.01;81.78;100361.55;1737195;80;21181;-52
2022/12/24 12:32:15;;;;;;;42.20;26.50;;;;;;;8.01;81.78;100363.45;1750098;80;21746;-52
2022/12/24 12:35:38;;;;;;;44.10;28.17;;;;;;;8.02;81.80;100363.28;1755864;80;21264;-52
2022/12/24 12:38:47;;;;;;;43.52;27.60;;;;;;;8.03;81.77;100358.66;1721727;82;21201;-53
2022/12/24 12:42:36;;;;;;;44.08;27.98;;;;;;;8.02;81.73;100361.92;1736956;82;21212;-53
2022/12/24 12:46:01;;;;;;;44.60;28.38;;;;;;;7.99;81.76;100355.92;1748896;79;21558;-53
2022/12/24 12:49:33;;;;;;;44.03;26.68;;;;;;;8.00;81.76;100363.95;1759167;81;21735;-52
2022/12/24 12:53:20;;;;;;;39.73;25.02;;;;;;;7.99;81.75;100366.83;1768184;80;21642;-52
2022/12/24 12:56:38;;;;;;;43.40;27.02;;;;;;;7.99;81.78;100377.73;1719935;81;21566;-53
2022/12/24 12:59:58;;;;;;;42.08;27.30;;;;;;;7.99;81.82;100364.11;1744471;80;21789;-52
2022/12/24 13:03:21;;;;;;;43.83;27.32;;;;;;;8.01;81.81;100379.80;1742646;80;21205;-53
2022/12/24 13:06:46;;;;;;;41.85;26.97;;;;;;;8.01;81.81;100381.16;1765134;79;21240;-53
2022/12/24 13:10:05;;;;;;;40.20;26.15;;;;;;;7.99;81.78;100381.82;1758332;80;21718;-52
2022/12/24 13:13:42;;;;;;;43.87;26.82;;;;;;;7.95;81.72;100385.37;1751349;81;21262;-53
2022/12/24 13:17:26;;;;;;;42.90;28.12;;;;;;;7.94;81.74;100387.75;1759053;81;21296;-53
2022/12/24 13:20:37;;;;;;;43.45;27.58;;;;;;;7.92;81.75;100395.22;1763720;81;21737;-53
2022/12/24 13:23:43;;;;;;;45.73;28.42;;;;;;;7.91;81.82;100388.08;1763900;81;21165;-54
2022/12/24 13:26:49;;;;;;;47.40;29.27;;;;;;;7.92;81.79;100388.91;1763771;80;21227;-53
2022/12/24 13:30:13;;;;;;;48.35;30.62;;;;;;;7.88;81.73;100390.26;1758005;80;21682;-54
2022/12/24 13:33:20;;;;;;;46.42;28.27;;;;;;;7.88;81.73;100386.17;1746060;81;21988;-53
2022/12/24 13:36:28;;;;;;;47.85;28.65;;;;;;;7.86;81.75;100388.19;1704994;82;22053;-53
2022/12/24 13:39:34;;;;;;;47.90;29.75;;;;;;;7.83;81.66;100392.10;1713918;82;21203;-52
2022/12/24 13:43:11;;;;;;;50.43;30.43;;;;;;;7.78;81.45;100398.52;1718121;81;21250;-54
2022/12/24 13:46:16;;;;;;;50.00;31.62;;;;;;;7.71;81.45;100400.16;1751380;80;21780;-54
2022/12/24 13:49:48;;;;;;;48.40;30.60;;;;;;;7.69;81.62;100394.00;1736068;82;21231;-52
2022/12/24 13:53:00;;;;;;;54.33;33.05;;;;;;;7.67;81.59;100393.32;1765992;81;21804;-53
2022/12/24 13:56:21;;;;;;;58.38;34.35;;;;;;;7.65;81.67;100400.79;1765675;80;21744;-53
2022/12/24 13:59:43;;;;;;;58.92;35.10;;;;;;;7.64;81.73;100399.92;1729019;83;21338;-52
2022/12/24 14:03:12;;;;;;;61.00;33.75;;;;;;;7.67;81.79;100402.86;1765755;81;21195;-53
2022/12/24 14:06:39;;;;;;;59.05;35.38;;;;;;;7.68;81.80;100406.41;1729200;83;21349;-52
2022/12/24 14:09:45;;;;;;;62.62;37.63;;;;;;;7.66;81.69;100407.94;1766012;80;21184;-52
2022/12/24 14:12:56;;;;;;;58.78;34.90;;;;;;;7.67;81.67;100411.53;1696261;83;21225;-51
2022/12/24 14:16:08;;;;;;;54.05;33.50;;;;;;;7.67;81.73;100394.69;1769895;80;21639;-53
2022/12/24 14:19:21;;;;;;;46.73;30.27;;;;;;;7.68;81.67;100398.23;1769070;81;21185;-53
2022/12/24 14:22:51;;;;;;;49.50;30.27;;;;;;;7.63;81.49;100390.55;1768818;80;21217;-53
2022/12/24 14:25:58;;;;;;;47.48;28.95;;;;;;;7.54;81.39;100405.98;1768703;80;21201;-53
2022/12/24 14:29:11;;;;;;;49.93;29.70;;;;;;;7.47;81.41;100408.09;1762648;81;21213;-53
2022/12/24 14:32:23;;;;;;;54.63;31.27;;;;;;;7.42;81.52;100409.92;1737256;82;21742;-53
2022/12/24 14:35:31;;;;;;;47.10;28.10;;;;;;;7.43;81.67;100411.66;1738500;82;21244;-52
2022/12/24 14:38:36;;;;;;;48.83;29.98;;;;;;;7.44;81.68;100416.08;1738847;81;21181;-53
2022/12/24 14:42:06;;;;;;;54.83;30.62;;;;;;;7.43;81.74;100413.52;1737861;82;21777;-52
2022/12/24 14:45:42;;;;;;;51.70;29.90;;;;;;;7.47;81.93;100425.80;1740837;81;21825;-51